sensor_id;sensor_type;location;lat;lon;timestamp;temperature;humidity
37310;DHT22;23195;47.744;7.358;2024-02-26T06:53:03;7.30;99.90
37310;DHT22;23195;47.744;7.358;2024-02-26T06:55:30;7.30;99.90
37310;DHT22;23195;47.744;7.358;2024-02-26T06:57:55;6.90;99.90
37310;DHT22;23195;47.744;7.358;2024-02-26T07:00:21;7.50;99.90
37310;DHT22;23195;47.744;7.358;2024-02-26T07:02:50;7.50;99.90
37310;DHT22;23195;47.744;7.358;2024-02-26T07:05:16;7.60;99.90
37310;DHT22;23195;47.744;7.358;2024-02-26T07:07:42;7.70;99.90
37310;DHT22;23195;47.744;7.358;2024-02-26T07:10:08;7.90;99.90
37310;DHT22;23195;47.744;7.358;2024-02-26T07:12:34;8.00;99.90
37310;DHT22;23195;47.744;7.358;2024-02-26T07:14:59;8.10;99.90
37310;DHT22;23195;47.744;7.358;2024-02-26T07:17:26;8.30;99.90
37310;DHT22;23195;47.744;7.358;2024-02-26T07:20:02;8.50;99.90
37310;DHT22;23195;47.744;7.358;2024-02-26T07:22:34;8.50;99.90
37310;DHT22;23195;47.744;7.358;2024-02-26T07:25:00;8.20;99.90
37310;DHT22;23195;47.744;7.358;2024-02-26T07:27:26;8.50;99.90
37310;DHT22;23195;47.744;7.358;2024-02-26T07:29:55;8.50;99.90
37310;DHT22;23195;47.744;7.358;2024-02-26T07:32:20;8.60;99.90
37310;DHT22;23195;47.744;7.358;2024-02-26T07:34:46;8.80;99.90
37310;DHT22;23195;47.744;7.358;2024-02-26T07:37:12;8.70;99.90
37310;DHT22;23195;47.744;7.358;2024-02-26T07:39:38;8.70;99.90
37310;DHT22;23195;47.744;7.358;2024-02-26T07:42:04;8.70;99.90
37310;DHT22;23195;47.744;7.358;2024-02-26T07:44:29;9.00;99.90
37310;DHT22;23195;47.744;7.358;2024-02-26T07:46:55;9.20;99.90
37310;DHT22;23195;47.744;7.358;2024-02-26T07:49:24;9.40;99.90
37310;DHT22;23195;47.744;7.358;2024-02-26T07:51:49;9.50;99.90
37310;DHT22;23195;47.744;7.358;2024-02-26T07:54:15;9.60;99.90
37310;DHT22;23195;47.744;7.358;2024-02-26T07:56:41;9.50;99.90
37310;DHT22;23195;47.744;7.358;2024-02-26T07:59:07;9.40;99.90
37310;DHT22;23195;47.744;7.358;2024-02-26T08:01:36;9.20;99.90
37310;DHT22;23195;47.744;7.358;2024-02-26T08:04:04;8.90;99.90
37310;DHT22;23195;47.744;7.358;2024-02-26T08:06:30;8.90;99.90
37310;DHT22;23195;47.744;7.358;2024-02-26T08:08:56;8.90;99.90
37310;DHT22;23195;47.744;7.358;2024-02-26T08:11:26;9.00;99.90
37310;DHT22;23195;47.744;7.358;2024-02-26T08:13:51;9.00;99.90
37310;DHT22;23195;47.744;7.358;2024-02-26T08:16:17;8.90;99.90
37310;DHT22;23195;47.744;7.358;2024-02-26T08:18:43;9.00;99.90
37310;DHT22;23195;47.744;7.358;2024-02-26T08:21:09;9.00;99.90
37310;DHT22;23195;47.744;7.358;2024-02-26T08:23:35;9.20;99.90
37310;DHT22;23195;47.744;7.358;2024-02-26T08:26:01;9.20;99.90
37310;DHT22;23195;47.744;7.358;2024-02-26T08:28:26;9.30;99.90
37310;DHT22;23195;47.744;7.358;2024-02-26T08:30:52;9.40;99.90
37310;DHT22;23195;47.744;7.358;2024-02-26T08:33:18;9.30;99.90
37310;DHT22;23195;47.744;7.358;2024-02-26T08:35:44;9.50;99.90
37310;DHT22;23195;47.744;7.358;2024-02-26T08:38:10;9.50;99.90
37310;DHT22;23195;47.744;7.358;2024-02-26T08:40:37;9.60;99.90
37310;DHT22;23195;47.744;7.358;2024-02-26T08:43:03;9.40;99.90
37310;DHT22;23195;47.744;7.358;2024-02-26T08:45:31;8.90;99.90
37310;DHT22;23195;47.744;7.358;2024-02-26T08:47:57;9.40;99.90
37310;DHT22;23195;47.744;7.358;2024-02-26T08:50:24;9.40;99.90
37310;DHT22;23195;47.744;7.358;2024-02-26T08:52:53;9.60;99.90
37310;DHT22;23195;47.744;7.358;2024-02-26T08:55:19;9.80;99.90
37310;DHT22;23195;47.744;7.358;2024-02-26T08:57:45;9.40;99.90
37310;DHT22;23195;47.744;7.358;2024-02-26T09:00:11;9.50;99.90
37310;DHT22;23195;47.744;7.358;2024-02-26T09:02:37;9.60;99.90
37310;DHT22;23195;47.744;7.358;2024-02-26T09:05:05;9.70;99.90
37310;DHT22;23195;47.744;7.358;2024-02-26T09:07:34;9.50;99.90
37310;DHT22;23195;47.744;7.358;2024-02-26T09:10:00;9.50;99.90
37310;DHT22;23195;47.744;7.358;2024-02-26T09:12:26;9.40;99.90
37310;DHT22;23195;47.744;7.358;2024-02-26T09:14:51;9.20;99.90
37310;DHT22;23195;47.744;7.358;2024-02-26T09:17:17;9.40;99.90
37310;DHT22;23195;47.744;7.358;2024-02-26T09:19:46;9.50;99.90
37310;DHT22;23195;47.744;7.358;2024-02-26T09:22:15;9.60;99.90
37310;DHT22;23195;47.744;7.358;2024-02-26T09:24:41;9.70;99.90
37310;DHT22;23195;47.744;7.358;2024-02-26T09:27:07;9.70;99.90
37310;DHT22;23195;47.744;7.358;2024-02-26T09:29:32;9.80;99.90
37310;DHT22;23195;47.744;7.358;2024-02-26T09:32:00;9.90;99.90
37310;DHT22;23195;47.744;7.358;2024-02-26T09:34:26;9.80;99.90
37310;DHT22;23195;47.744;7.358;2024-02-26T09:36:52;9.80;99.90
37310;DHT22;23195;47.744;7.358;2024-02-26T09:39:21;9.80;99.90
37310;DHT22;23195;47.744;7.358;2024-02-26T09:41:50;9.80;99.90
37310;DHT22;23195;47.744;7.358;2024-02-26T09:44:20;9.70;99.90
37310;DHT22;23195;47.744;7.358;2024-02-26T09:46:51;9.80;99.90
37310;DHT22;23195;47.744;7.358;2024-02-26T09:49:19;9.80;99.90
37310;DHT22;23195;47.744;7.358;2024-02-26T09:51:51;10.00;99.90
37310;DHT22;23195;47.744;7.358;2024-02-26T09:54:19;10.20;99.90
37310;DHT22;23195;47.744;7.358;2024-02-26T09:56:48;10.30;99.90
37310;DHT22;23195;47.744;7.358;2024-02-26T09:59:17;10.50;99.90
37310;DHT22;23195;47.744;7.358;2024-02-26T10:01:44;10.70;99.90
37310;DHT22;23195;47.744;7.358;2024-02-26T10:04:11;10.70;99.90
37310;DHT22;23195;47.744;7.358;2024-02-26T10:06:37;10.70;99.90
37310;DHT22;23195;47.744;7.358;2024-02-26T10:09:04;10.90;99.90
37310;DHT22;23195;47.744;7.358;2024-02-26T10:11:32;10.90;99.90
37310;DHT22;23195;47.744;7.358;2024-02-26T10:13:58;10.60;99.90
37310;DHT22;23195;47.744;7.358;2024-02-26T10:16:28;11.00;99.90
37310;DHT22;23195;47.744;7.358;2024-02-26T10:18:54;10.90;99.90
37310;DHT22;23195;47.744;7.358;2024-02-26T10:21:20;11.00;99.90
37310;DHT22;23195;47.744;7.358;2024-02-26T10:23:47;10.90;99.90
37310;DHT22;23195;47.744;7.358;2024-02-26T10:26:16;11.10;99.90
37310;DHT22;23195;47.744;7.358;2024-02-26T10:28:43;11.20;99.90
37310;DHT22;23195;47.744;7.358;2024-02-26T10:31:10;11.00;99.90
37310;DHT22;23195;47.744;7.358;2024-02-26T10:33:39;11.00;99.90
37310;DHT22;23195;47.744;7.358;2024-02-26T10:36:05;11.20;99.90
37310;DHT22;23195;47.744;7.358;2024-02-26T10:38:38;11.20;99.90
37310;DHT22;23195;47.744;7.358;2024-02-26T10:44:00;11.40;99.90
37310;DHT22;23195;47.744;7.358;2024-02-26T10:46:26;11.50;99.90
37310;DHT22;23195;47.744;7.358;2024-02-26T10:48:53;11.80;99.90
37310;DHT22;23195;47.744;7.358;2024-02-26T10:51:26;11.90;99.90
37310;DHT22;23195;47.744;7.358;2024-02-26T10:53:55;12.10;99.90
37310;DHT22;23195;47.744;7.358;2024-02-26T10:56:27;12.00;99.90
37310;DHT22;23195;47.744;7.358;2024-02-26T10:59:16;12.20;99.90
37310;DHT22;23195;47.744;7.358;2024-02-26T11:01:50;12.20;99.90
37310;DHT22;23195;47.744;7.358;2024-02-26T11:04:20;12.20;99.90
37310;DHT22;23195;47.744;7.358;2024-02-26T11:06:54;12.20;99.90
37310;DHT22;23195;47.744;7.358;2024-02-26T11:09:22;12.30;99.90
37310;DHT22;23195;47.744;7.358;2024-02-26T11:11:54;12.20;99.90
37310;DHT22;23195;47.744;7.358;2024-02-26T11:14:30;12.20;99.90
37310;DHT22;23195;47.744;7.358;2024-02-26T11:17:45;12.20;99.90
37310;DHT22;23195;47.744;7.358;2024-02-26T11:20:09;12.00;99.90
37310;DHT22;23195;47.744;7.358;2024-02-26T11:22:36;12.00;99.90
37310;DHT22;23195;47.744;7.358;2024-02-26T11:25:03;12.00;99.90
37310;DHT22;23195;47.744;7.358;2024-02-26T11:27:41;12.10;99.90
37310;DHT22;23195;47.744;7.358;2024-02-26T11:30:10;12.20;99.90
37310;DHT22;23195;47.744;7.358;2024-02-26T11:32:37;12.20;99.90
37310;DHT22;23195;47.744;7.358;2024-02-26T11:35:05;12.20;99.90
37310;DHT22;23195;47.744;7.358;2024-02-26T11:37:32;12.20;99.90
37310;DHT22;23195;47.744;7.358;2024-02-26T11:39:59;12.40;99.90
37310;DHT22;23195;47.744;7.358;2024-02-26T11:42:26;12.40;99.90
37310;DHT22;23195;47.744;7.358;2024-02-26T11:44:54;12.50;99.90
37310;DHT22;23195;47.744;7.358;2024-02-26T11:47:22;12.40;99.90
37310;DHT22;23195;47.744;7.358;2024-02-26T11:49:49;12.40;99.90
37310;DHT22;23195;47.744;7.358;2024-02-26T11:52:15;12.50;99.90
37310;DHT22;23195;47.744;7.358;2024-02-26T11:54:49;12.70;99.90
37310;DHT22;23195;47.744;7.358;2024-02-26T11:57:30;12.90;99.90
37310;DHT22;23195;47.744;7.358;2024-02-26T12:00:13;12.90;99.90
37310;DHT22;23195;47.744;7.358;2024-02-26T12:02:51;12.90;99.90
37310;DHT22;23195;47.744;7.358;2024-02-26T12:05:24;13.00;99.90
37310;DHT22;23195;47.744;7.358;2024-02-26T12:07:54;13.00;99.90
37310;DHT22;23195;47.744;7.358;2024-02-26T12:10:31;13.00;99.90
37310;DHT22;23195;47.744;7.358;2024-02-26T12:13:17;13.10;99.90
37310;DHT22;23195;47.744;7.358;2024-02-26T12:15:44;13.40;99.90
37310;DHT22;23195;47.744;7.358;2024-02-26T12:18:16;13.40;99.90
37310;DHT22;23195;47.744;7.358;2024-02-26T12:20:42;13.50;99.90
37310;DHT22;23195;47.744;7.358;2024-02-26T12:23:18;13.50;99.90
37310;DHT22;23195;47.744;7.358;2024-02-26T12:25:44;13.70;99.90
37310;DHT22;23195;47.744;7.358;2024-02-26T12:28:10;13.60;99.90
37310;DHT22;23195;47.744;7.358;2024-02-26T12:30:36;13.50;99.90
37310;DHT22;23195;47.744;7.358;2024-02-26T12:33:02;13.50;99.90
37310;DHT22;23195;47.744;7.358;2024-02-26T12:35:28;13.40;99.90
37310;DHT22;23195;47.744;7.358;2024-02-26T12:37:56;13.50;99.90
37310;DHT22;23195;47.744;7.358;2024-02-26T12:40:28;13.60;99.90
37310;DHT22;23195;47.744;7.358;2024-02-26T12:42:54;13.60;99.90
37310;DHT22;23195;47.744;7.358;2024-02-26T12:45:26;13.60;99.90
37310;DHT22;23195;47.744;7.358;2024-02-26T12:47:56;12.70;99.90
37310;DHT22;23195;47.744;7.358;2024-02-26T12:50:25;15.00;99.90
37310;DHT22;23195;47.744;7.358;2024-02-26T12:52:51;13.20;99.90
37310;DHT22;23195;47.744;7.358;2024-02-26T12:55:20;12.90;99.90
37310;DHT22;23195;47.744;7.358;2024-02-26T12:57:52;13.10;99.90
37310;DHT22;23195;47.744;7.358;2024-02-26T13:00:31;13.10;99.90
37310;DHT22;23195;47.744;7.358;2024-02-26T13:02:59;13.10;99.90
37310;DHT22;23195;47.744;7.358;2024-02-26T13:05:28;13.10;99.90
37310;DHT22;23195;47.744;7.358;2024-02-26T13:07:54;13.10;99.90
37310;DHT22;23195;47.744;7.358;2024-02-26T13:10:20;13.60;99.90
37310;DHT22;23195;47.744;7.358;2024-02-26T13:12:48;13.30;99.90
37310;DHT22;23195;47.744;7.358;2024-02-26T13:15:20;13.30;99.90
37310;DHT22;23195;47.744;7.358;2024-02-26T13:17:47;13.60;99.90
37310;DHT22;23195;47.744;7.358;2024-02-26T13:20:34;13.70;99.90
37310;DHT22;23195;47.744;7.358;2024-02-26T13:23:05;13.60;99.90
37310;DHT22;23195;47.744;7.358;2024-02-26T13:25:32;13.40;99.90
37310;DHT22;23195;47.744;7.358;2024-02-26T13:28:17;13.70;99.90
37310;DHT22;23195;47.744;7.358;2024-02-26T13:30:56;13.30;99.90
37310;DHT22;23195;47.744;7.358;2024-02-26T13:33:23;13.00;99.90
37310;DHT22;23195;47.744;7.358;2024-02-26T13:35:49;13.40;99.90
37310;DHT22;23195;47.744;7.358;2024-02-26T13:38:15;13.30;99.90
37310;DHT22;23195;47.744;7.358;2024-02-26T13:40:41;13.40;99.90
37310;DHT22;23195;47.744;7.358;2024-02-26T13:43:10;13.20;99.90
37310;DHT22;23195;47.744;7.358;2024-02-26T13:45:38;13.20;99.90
37310;DHT22;23195;47.744;7.358;2024-02-26T13:48:08;13.30;99.90
37310;DHT22;23195;47.744;7.358;2024-02-26T13:50:37;13.40;99.90
37310;DHT22;23195;47.744;7.358;2024-02-26T13:53:03;13.50;99.90
37310;DHT22;23195;47.744;7.358;2024-02-26T13:55:30;13.50;99.90
37310;DHT22;23195;47.744;7.358;2024-02-26T13:57:58;13.40;99.90
37310;DHT22;23195;47.744;7.358;2024-02-26T14:00:27;13.30;99.90
37310;DHT22;23195;47.744;7.358;2024-02-26T14:02:53;13.40;99.90
37310;DHT22;23195;47.744;7.358;2024-02-26T14:05:20;13.30;99.90
37310;DHT22;23195;47.744;7.358;2024-02-26T14:07:51;13.30;99.90
37310;DHT22;23195;47.744;7.358;2024-02-26T14:10:17;13.40;99.90
37310;DHT22;23195;47.744;7.358;2024-02-26T14:12:45;13.40;99.90
37310;DHT22;23195;47.744;7.358;2024-02-26T14:15:13;13.50;99.90
37310;DHT22;23195;47.744;7.358;2024-02-26T14:17:39;13.50;99.90
37310;DHT22;23195;47.744;7.358;2024-02-26T14:20:05;13.50;99.90
37310;DHT22;23195;47.744;7.358;2024-02-26T14:22:33;13.50;99.90
37310;DHT22;23195;47.744;7.358;2024-02-26T14:25:02;13.50;99.90
37310;DHT22;23195;47.744;7.358;2024-02-26T14:27:27;13.60;99.90
37310;DHT22;23195;47.744;7.358;2024-02-26T14:29:55;13.50;99.90
37310;DHT22;23195;47.744;7.358;2024-02-26T14:32:21;13.60;99.90
37310;DHT22;23195;47.744;7.358;2024-02-26T14:34:56;13.70;99.90
37310;DHT22;23195;47.744;7.358;2024-02-26T14:37:22;13.90;99.90
37310;DHT22;23195;47.744;7.358;2024-02-26T14:39:51;14.10;99.90
37310;DHT22;23195;47.744;7.358;2024-02-26T14:42:18;14.10;99.90
37310;DHT22;23195;47.744;7.358;2024-02-26T14:44:44;14.20;99.90
37310;DHT22;23195;47.744;7.358;2024-02-26T14:47:13;14.20;99.90
37310;DHT22;23195;47.744;7.358;2024-02-26T14:49:40;14.00;99.90
37310;DHT22;23195;47.744;7.358;2024-02-26T14:52:05;13.90;99.90
37310;DHT22;23195;47.744;7.358;2024-02-26T14:54:31;13.80;99.90
37310;DHT22;23195;47.744;7.358;2024-02-26T14:57:05;13.70;99.90
37310;DHT22;23195;47.744;7.358;2024-02-26T14:59:34;13.70;99.90
37310;DHT22;23195;47.744;7.358;2024-02-26T15:02:02;13.60;99.90
37310;DHT22;23195;47.744;7.358;2024-02-26T15:04:28;13.60;99.90
37310;DHT22;23195;47.744;7.358;2024-02-26T15:06:54;13.50;99.90
37310;DHT22;23195;47.744;7.358;2024-02-26T15:09:20;13.40;99.90
37310;DHT22;23195;47.744;7.358;2024-02-26T15:11:46;13.40;99.90
37310;DHT22;23195;47.744;7.358;2024-02-26T15:14:12;13.40;99.90
37310;DHT22;23195;47.744;7.358;2024-02-26T15:16:38;13.40;99.90
37310;DHT22;23195;47.744;7.358;2024-02-26T15:19:04;13.30;99.90
37310;DHT22;23195;47.744;7.358;2024-02-26T15:21:29;13.30;99.90
37310;DHT22;23195;47.744;7.358;2024-02-26T15:23:56;13.20;99.90
37310;DHT22;23195;47.744;7.358;2024-02-26T15:26:22;13.20;99.90
37310;DHT22;23195;47.744;7.358;2024-02-26T15:28:48;13.10;99.90
37310;DHT22;23195;47.744;7.358;2024-02-26T15:31:16;12.90;99.90
37310;DHT22;23195;47.744;7.358;2024-02-26T15:33:42;12.90;99.90
37310;DHT22;23195;47.744;7.358;2024-02-26T15:36:09;12.80;99.90
37310;DHT22;23195;47.744;7.358;2024-02-26T15:38:38;12.80;99.90
37310;DHT22;23195;47.744;7.358;2024-02-26T15:41:12;12.70;99.90
37310;DHT22;23195;47.744;7.358;2024-02-26T15:43:42;12.70;99.90
37310;DHT22;23195;47.744;7.358;2024-02-26T15:46:08;12.70;99.90
37310;DHT22;23195;47.744;7.358;2024-02-26T15:48:35;12.70;99.90
37310;DHT22;23195;47.744;7.358;2024-02-26T15:51:01;12.60;99.90
37310;DHT22;23195;47.744;7.358;2024-02-26T15:53:27;12.60;99.90
37310;DHT22;23195;47.744;7.358;2024-02-26T15:55:53;12.60;99.90
37310;DHT22;23195;47.744;7.358;2024-02-26T15:58:18;12.60;99.90
37310;DHT22;23195;47.744;7.358;2024-02-26T16:00:44;12.50;99.90
37310;DHT22;23195;47.744;7.358;2024-02-26T16:03:11;12.50;99.90
37310;DHT22;23195;47.744;7.358;2024-02-26T16:05:37;12.40;99.90
37310;DHT22;23195;47.744;7.358;2024-02-26T16:08:22;12.50;99.90
37310;DHT22;23195;47.744;7.358;2024-02-26T16:10:49;12.60;99.90
37310;DHT22;23195;47.744;7.358;2024-02-26T16:13:15;12.60;99.90
37310;DHT22;23195;47.744;7.358;2024-02-26T16:15:45;12.60;99.90
37310;DHT22;23195;47.744;7.358;2024-02-26T16:18:12;12.60;99.90
37310;DHT22;23195;47.744;7.358;2024-02-26T16:20:42;12.60;99.90
37310;DHT22;23195;47.744;7.358;2024-02-26T16:23:08;12.60;99.90
37310;DHT22;23195;47.744;7.358;2024-02-26T16:25:34;12.60;99.90
37310;DHT22;23195;47.744;7.358;2024-02-26T16:28:01;12.60;99.90
37310;DHT22;23195;47.744;7.358;2024-02-26T16:30:27;12.60;99.90
37310;DHT22;23195;47.744;7.358;2024-02-26T16:32:53;12.60;99.90
37310;DHT22;23195;47.744;7.358;2024-02-26T16:35:19;12.50;99.90
37310;DHT22;23195;47.744;7.358;2024-02-26T16:37:44;12.50;99.90
37310;DHT22;23195;47.744;7.358;2024-02-26T16:40:13;12.50;99.90
37310;DHT22;23195;47.744;7.358;2024-02-26T16:42:43;12.40;99.90
37310;DHT22;23195;47.744;7.358;2024-02-26T16:45:09;12.40;99.90
37310;DHT22;23195;47.744;7.358;2024-02-26T16:47:35;12.30;99.90
37310;DHT22;23195;47.744;7.358;2024-02-26T16:50:02;12.30;99.90
37310;DHT22;23195;47.744;7.358;2024-02-26T16:52:38;12.20;99.90
37310;DHT22;23195;47.744;7.358;2024-02-26T16:55:04;12.30;99.90
37310;DHT22;23195;47.744;7.358;2024-02-26T16:57:30;12.20;99.90
37310;DHT22;23195;47.744;7.358;2024-02-26T16:59:55;12.10;99.90
37310;DHT22;23195;47.744;7.358;2024-02-26T17:02:33;12.20;99.90
37310;DHT22;23195;47.744;7.358;2024-02-26T17:05:10;11.60;99.90
37310;DHT22;23195;47.744;7.358;2024-02-26T17:07:38;12.00;99.90
37310;DHT22;23195;47.744;7.358;2024-02-26T17:10:07;12.00;99.90
37310;DHT22;23195;47.744;7.358;2024-02-26T17:12:33;12.00;99.90
37310;DHT22;23195;47.744;7.358;2024-02-26T17:15:09;12.00;99.90
37310;DHT22;23195;47.744;7.358;2024-02-26T17:17:35;11.80;99.90
37310;DHT22;23195;47.744;7.358;2024-02-26T17:20:05;11.70;99.90
37310;DHT22;23195;47.744;7.358;2024-02-26T17:22:34;11.70;99.90
37310;DHT22;23195;47.744;7.358;2024-02-26T17:25:00;11.60;99.90
37310;DHT22;23195;47.744;7.358;2024-02-26T17:27:26;11.50;99.90
37310;DHT22;23195;47.744;7.358;2024-02-26T17:29:52;11.50;99.90
37310;DHT22;23195;47.744;7.358;2024-02-26T17:32:17;11.40;99.90
37310;DHT22;23195;47.744;7.358;2024-02-26T17:34:51;11.40;99.90
37310;DHT22;23195;47.744;7.358;2024-02-26T17:37:20;11.30;99.90
37310;DHT22;23195;47.744;7.358;2024-02-26T17:39:46;11.20;99.90
37310;DHT22;23195;47.744;7.358;2024-02-26T17:42:30;11.10;99.90
37310;DHT22;23195;47.744;7.358;2024-02-26T17:44:59;10.70;99.90
37310;DHT22;23195;47.744;7.358;2024-02-26T17:47:27;11.00;99.90
37310;DHT22;23195;47.744;7.358;2024-02-26T17:49:56;11.00;99.90
37310;DHT22;23195;47.744;7.358;2024-02-26T17:52:23;10.90;99.90
37310;DHT22;23195;47.744;7.358;2024-02-26T17:54:49;10.90;99.90
37310;DHT22;23195;47.744;7.358;2024-02-26T17:57:15;10.80;99.90
37310;DHT22;23195;47.744;7.358;2024-02-26T17:59:40;10.80;99.90
37310;DHT22;23195;47.744;7.358;2024-02-26T18:02:12;10.90;99.90
37310;DHT22;23195;47.744;7.358;2024-02-26T18:04:40;11.30;99.90
37310;DHT22;23195;47.744;7.358;2024-02-26T18:07:06;10.80;99.90
37310;DHT22;23195;47.744;7.358;2024-02-26T18:09:33;10.70;99.90
37310;DHT22;23195;47.744;7.358;2024-02-26T18:11:59;10.70;99.90
37310;DHT22;23195;47.744;7.358;2024-02-26T18:14:25;10.60;99.90
37310;DHT22;23195;47.744;7.358;2024-02-26T18:16:51;10.50;99.90
37310;DHT22;23195;47.744;7.358;2024-02-26T18:19:17;10.40;99.90
37310;DHT22;23195;47.744;7.358;2024-02-26T18:21:43;10.40;99.90
37310;DHT22;23195;47.744;7.358;2024-02-26T18:24:09;10.40;99.90
37310;DHT22;23195;47.744;7.358;2024-02-26T18:26:35;10.30;99.90
37310;DHT22;23195;47.744;7.358;2024-02-26T18:29:00;10.30;99.90
37310;DHT22;23195;47.744;7.358;2024-02-26T18:31:29;10.30;99.90
37310;DHT22;23195;47.744;7.358;2024-02-26T18:33:55;10.10;99.90
37310;DHT22;23195;47.744;7.358;2024-02-26T18:36:20;10.00;99.90
37310;DHT22;23195;47.744;7.358;2024-02-26T18:38:49;10.00;99.90
37310;DHT22;23195;47.744;7.358;2024-02-26T18:41:24;10.00;99.90
37310;DHT22;23195;47.744;7.358;2024-02-26T18:44:28;10.00;99.90
37310;DHT22;23195;47.744;7.358;2024-02-26T18:46:55;10.00;99.90
37310;DHT22;23195;47.744;7.358;2024-02-26T18:49:21;9.80;99.90
37310;DHT22;23195;47.744;7.358;2024-02-26T18:51:53;9.10;99.90
37310;DHT22;23195;47.744;7.358;2024-02-26T18:54:19;9.80;99.90
37310;DHT22;23195;47.744;7.358;2024-02-26T18:56:44;9.80;99.90
37310;DHT22;23195;47.744;7.358;2024-02-26T18:59:10;9.70;99.90
37310;DHT22;23195;47.744;7.358;2024-02-26T19:01:43;9.70;99.90
37310;DHT22;23195;47.744;7.358;2024-02-26T19:04:08;9.60;99.90
37310;DHT22;23195;47.744;7.358;2024-02-26T19:06:35;9.60;99.90
37310;DHT22;23195;47.744;7.358;2024-02-26T19:09:04;9.50;99.90
37310;DHT22;23195;47.744;7.358;2024-02-26T19:11:30;9.50;99.90
37310;DHT22;23195;47.744;7.358;2024-02-26T19:13:57;9.50;99.90
37310;DHT22;23195;47.744;7.358;2024-02-26T19:16:24;9.40;99.90
37310;DHT22;23195;47.744;7.358;2024-02-26T19:18:51;9.30;99.90
37310;DHT22;23195;47.744;7.358;2024-02-26T19:21:18;9.30;99.90
37310;DHT22;23195;47.744;7.358;2024-02-26T19:23:44;9.20;99.90
37310;DHT22;23195;47.744;7.358;2024-02-26T19:26:10;9.20;99.90
37310;DHT22;23195;47.744;7.358;2024-02-26T19:28:36;9.30;99.90
37310;DHT22;23195;47.744;7.358;2024-02-26T19:31:02;9.30;99.90
37310;DHT22;23195;47.744;7.358;2024-02-26T19:33:31;9.20;99.90
37310;DHT22;23195;47.744;7.358;2024-02-26T19:36:05;9.20;99.90
37310;DHT22;23195;47.744;7.358;2024-02-26T19:38:31;8.50;99.90
37310;DHT22;23195;47.744;7.358;2024-02-26T19:40:58;9.10;99.90
37310;DHT22;23195;47.744;7.358;2024-02-26T19:43:26;9.00;99.90
37310;DHT22;23195;47.744;7.358;2024-02-26T19:45:55;9.00;99.90
37310;DHT22;23195;47.744;7.358;2024-02-26T19:48:21;9.00;99.90
37310;DHT22;23195;47.744;7.358;2024-02-26T19:50:46;9.00;99.90
37310;DHT22;23195;47.744;7.358;2024-02-26T19:53:12;9.00;99.90
37310;DHT22;23195;47.744;7.358;2024-02-26T19:55:40;9.10;99.90
37310;DHT22;23195;47.744;7.358;2024-02-26T19:58:07;9.10;99.90
37310;DHT22;23195;47.744;7.358;2024-02-26T20:00:35;9.80;99.90
37310;DHT22;23195;47.744;7.358;2024-02-26T20:03:01;9.20;99.90
37310;DHT22;23195;47.744;7.358;2024-02-26T20:05:29;9.20;99.90
37310;DHT22;23195;47.744;7.358;2024-02-26T20:07:54;9.10;99.90
37310;DHT22;23195;47.744;7.358;2024-02-26T20:10:23;9.10;99.90
37310;DHT22;23195;47.744;7.358;2024-02-26T20:12:49;9.20;99.90
37310;DHT22;23195;47.744;7.358;2024-02-26T20:15:15;9.20;99.90
37310;DHT22;23195;47.744;7.358;2024-02-26T20:17:46;9.20;99.90
37310;DHT22;23195;47.744;7.358;2024-02-26T20:20:12;8.70;99.90
37310;DHT22;23195;47.744;7.358;2024-02-26T20:22:38;9.30;99.90
37310;DHT22;23195;47.744;7.358;2024-02-26T20:25:04;9.30;99.90
37310;DHT22;23195;47.744;7.358;2024-02-26T20:27:30;9.40;99.90
37310;DHT22;23195;47.744;7.358;2024-02-26T20:29:56;9.40;99.90
37310;DHT22;23195;47.744;7.358;2024-02-26T20:32:25;9.30;99.90
37310;DHT22;23195;47.744;7.358;2024-02-26T20:35:00;9.30;99.90
37310;DHT22;23195;47.744;7.358;2024-02-26T20:37:26;9.30;99.90
37310;DHT22;23195;47.744;7.358;2024-02-26T20:39:52;9.20;99.90
37310;DHT22;23195;47.744;7.358;2024-02-26T20:42:18;9.30;99.90
37310;DHT22;23195;47.744;7.358;2024-02-26T20:44:44;9.30;99.90
37310;DHT22;23195;47.744;7.358;2024-02-26T20:47:10;9.20;99.90
37310;DHT22;23195;47.744;7.358;2024-02-26T20:49:39;9.20;99.90
37310;DHT22;23195;47.744;7.358;2024-02-26T20:52:05;9.20;99.90
37310;DHT22;23195;47.744;7.358;2024-02-26T20:54:31;9.20;99.90
37310;DHT22;23195;47.744;7.358;2024-02-26T20:56:58;9.00;99.90
37310;DHT22;23195;47.744;7.358;2024-02-26T20:59:26;9.00;99.90
37310;DHT22;23195;47.744;7.358;2024-02-26T21:01:52;9.00;99.90
37310;DHT22;23195;47.744;7.358;2024-02-26T21:04:18;8.90;99.90
37310;DHT22;23195;47.744;7.358;2024-02-26T21:06:44;8.80;99.90
37310;DHT22;23195;47.744;7.358;2024-02-26T21:09:10;8.70;99.90
37310;DHT22;23195;47.744;7.358;2024-02-26T21:11:36;8.80;99.90
37310;DHT22;23195;47.744;7.358;2024-02-26T21:14:03;8.80;99.90
37310;DHT22;23195;47.744;7.358;2024-02-26T21:16:31;8.80;99.90
37310;DHT22;23195;47.744;7.358;2024-02-26T21:18:57;8.80;99.90
37310;DHT22;23195;47.744;7.358;2024-02-26T21:21:24;8.70;99.90
37310;DHT22;23195;47.744;7.358;2024-02-26T21:23:51;8.70;99.90
37310;DHT22;23195;47.744;7.358;2024-02-26T21:26:17;8.60;99.90
37310;DHT22;23195;47.744;7.358;2024-02-26T21:28:45;8.60;99.90
37310;DHT22;23195;47.744;7.358;2024-02-26T21:31:11;8.50;99.90
37310;DHT22;23195;47.744;7.358;2024-02-26T21:33:37;7.00;99.90
37310;DHT22;23195;47.744;7.358;2024-02-26T21:36:03;8.40;99.90
37310;DHT22;23195;47.744;7.358;2024-02-26T21:38:28;8.30;99.90
37310;DHT22;23195;47.744;7.358;2024-02-26T21:40:55;8.30;99.90
37310;DHT22;23195;47.744;7.358;2024-02-26T21:43:21;8.30;99.90
37310;DHT22;23195;47.744;7.358;2024-02-26T21:45:47;8.40;99.90
37310;DHT22;23195;47.744;7.358;2024-02-26T21:48:16;7.60;99.90
37310;DHT22;23195;47.744;7.358;2024-02-26T21:50:47;7.80;99.90
37310;DHT22;23195;47.744;7.358;2024-02-26T21:53:13;8.30;99.90
37310;DHT22;23195;47.744;7.358;2024-02-26T21:55:42;8.20;99.90
37310;DHT22;23195;47.744;7.358;2024-02-26T21:58:08;8.10;99.90
37310;DHT22;23195;47.744;7.358;2024-02-26T22:00:34;8.10;99.90
37310;DHT22;23195;47.744;7.358;2024-02-26T22:03:00;8.00;99.90
37310;DHT22;23195;47.744;7.358;2024-02-26T22:05:25;8.00;99.90
37310;DHT22;23195;47.744;7.358;2024-02-26T22:07:51;8.00;99.90
37310;DHT22;23195;47.744;7.358;2024-02-26T22:10:17;8.00;99.90
37310;DHT22;23195;47.744;7.358;2024-02-26T22:12:43;8.00;99.90
37310;DHT22;23195;47.744;7.358;2024-02-26T22:15:16;8.00;99.90
37310;DHT22;23195;47.744;7.358;2024-02-26T22:17:42;8.00;99.90
37310;DHT22;23195;47.744;7.358;2024-02-26T22:20:09;8.00;99.90
37310;DHT22;23195;47.744;7.358;2024-02-26T22:22:36;8.10;99.90
37310;DHT22;23195;47.744;7.358;2024-02-26T22:25:05;8.20;99.90
37310;DHT22;23195;47.744;7.358;2024-02-26T22:27:31;8.30;99.90
37310;DHT22;23195;47.744;7.358;2024-02-26T22:30:00;8.30;99.90
37310;DHT22;23195;47.744;7.358;2024-02-26T22:32:26;8.60;99.90
37310;DHT22;23195;47.744;7.358;2024-02-26T22:34:52;8.40;99.90
37310;DHT22;23195;47.744;7.358;2024-02-26T22:37:17;7.50;99.90